Time;durP1;ratioP1;P1;durP2;ratioP2;P2;SDS_P1;SDS_P2;PMS_P1;PMS_P2;Temp;Humidity;BMP_temperature;BMP_pressure;BME280_temperature;BME280_humidity;BME280_pressure;Samples;Min_cycle;Max_cycle;Signal;HPM_P1;HPM_P2
2022/08/24 00:00:52;;;;;;;7.22;5.10;;;;;;;24.12;61.62;94715.31;5082744;28;20162;-54
2022/08/24 00:03:17;;;;;;;6.78;5.00;;;;;;;24.13;61.35;94716.78;5085550;28;20023;-54
2022/08/24 00:05:43;;;;;;;7.50;4.32;;;;;;;24.17;61.14;94711.03;5077607;28;20032;-54
2022/08/24 00:08:08;;;;;;;10.38;5.25;;;;;;;24.11;61.30;94713.84;5080117;28;20168;-53
2022/08/24 00:10:34;;;;;;;6.00;4.60;;;;;;;24.13;61.01;94711.34;5081164;28;20055;-54
2022/08/24 00:12:59;;;;;;;9.45;4.68;;;;;;;24.13;61.37;94722.25;5084759;28;20262;-54
2022/08/24 00:15:25;;;;;;;7.80;5.28;;;;;;;24.10;61.23;94722.56;5079325;28;20094;-53
2022/08/24 00:17:50;;;;;;;6.70;4.85;;;;;;;24.05;61.54;94724.13;5081671;28;20033;-54
2022/08/24 00:20:15;;;;;;;7.20;4.90;;;;;;;24.07;61.04;94723.59;5082352;28;20514;-54
2022/08/24 00:22:41;;;;;;;6.47;5.03;;;;;;;24.17;61.16;94739.06;5081281;28;20434;-53
2022/08/24 00:25:08;;;;;;;9.10;4.30;;;;;;;24.11;61.11;94738.41;5081569;28;20468;-54
2022/08/24 00:27:33;;;;;;;8.38;5.00;;;;;;;24.10;61.34;94742.38;5087879;28;20030;-54
2022/08/24 00:29:59;;;;;;;7.47;4.97;;;;;;;24.08;61.44;94742.19;5077449;28;20020;-54
2022/08/24 00:32:24;;;;;;;6.03;4.68;;;;;;;24.00;61.05;94741.28;5086398;28;20027;-54
2022/08/24 00:34:50;;;;;;;9.23;4.68;;;;;;;23.97;61.30;94741.59;5080350;28;20634;-52
2022/08/24 00:37:15;;;;;;;7.72;5.18;;;;;;;24.08;61.26;94753.09;5089979;28;20100;-54
2022/08/24 00:39:41;;;;;;;8.25;5.68;;;;;;;24.05;61.49;94756.09;5075068;28;20028;-54
2022/08/24 00:42:06;;;;;;;6.60;4.93;;;;;;;24.00;61.68;94754.94;5083912;28;20036;-52
2022/08/24 00:44:32;;;;;;;6.55;4.88;;;;;;;24.04;61.43;94754.66;5079622;28;20067;-54
2022/08/24 00:46:57;;;;;;;8.18;5.18;;;;;;;23.95;61.60;94750.31;5084678;28;20437;-53
2022/08/24 00:49:42;;;;;;;8.68;5.35;;;;;;;23.98;61.42;94749.28;5085878;28;20047;-53
2022/08/24 00:52:18;;;;;;;8.05;5.28;;;;;;;24.02;61.37;94755.16;5081268;28;20024;-53
2022/08/24 00:54:46;;;;;;;9.88;5.93;;;;;;;23.99;61.43;94739.84;5091462;28;20130;-54
2022/08/24 00:57:11;;;;;;;7.88;5.72;;;;;;;23.97;61.62;94742.34;5080451;28;20032;-54
2022/08/24 00:59:40;;;;;;;8.13;6.25;;;;;;;24.04;61.65;94758.09;5081051;28;20060;-52
2022/08/24 01:02:10;;;;;;;10.68;6.30;;;;;;;24.04;62.07;94762.84;5079290;28;20123;-52
2022/08/24 01:04:38;;;;;;;;;;;;;;;23.99;62.12;94756.22;5074528;28;20572;-54
2022/08/24 01:07:03;;;;;;;8.93;6.63;;;;;;;24.02;62.09;94766.09;5077767;28;19919;-52
2022/08/24 01:09:29;;;;;;;9.60;6.45;;;;;;;23.28;62.11;94661.06;5087212;28;20020;-54
2022/08/24 01:11:55;;;;;;;12.20;6.38;;;;;;;23.99;62.34;94767.13;5079733;28;20517;-54
2022/08/24 01:14:21;;;;;;;8.85;7.07;;;;;;;23.97;62.04;94774.34;5082807;28;20533;-53
2022/08/24 01:19:43;;;;;;;12.05;8.68;;;;;;;23.94;62.61;94776.09;5080896;28;20114;-54
2022/08/24 01:22:36;;;;;;;12.35;8.25;;;;;;;23.88;62.87;94778.19;5079349;28;20266;-53
2022/08/24 01:25:02;;;;;;;12.88;8.65;;;;;;;23.89;62.73;94774.19;5082077;28;20032;-54
2022/08/24 01:27:28;;;;;;;12.13;8.48;;;;;;;23.86;63.25;94779.22;5090271;28;20539;-54
2022/08/24 01:29:53;;;;;;;12.65;9.25;;;;;;;23.91;62.77;94781.88;5088570;28;20036;-54
2022/08/24 01:32:22;;;;;;;12.65;9.15;;;;;;;23.89;63.12;94790.56;5066530;28;20039;-53
2022/08/24 01:34:47;;;;;;;13.05;9.90;;;;;;;23.93;62.98;94785.56;5087372;28;20047;-54
2022/08/24 01:37:13;;;;;;;14.90;10.85;;;;;;;23.67;62.79;94751.25;5089091;28;20594;-53
2022/08/24 01:39:40;;;;;;;13.18;9.88;;;;;;;23.87;62.74;94798.53;5075614;28;20036;-54
2022/08/24 01:42:05;;;;;;;13.77;10.15;;;;;;;23.84;62.93;94798.09;5065416;28;20035;-53
2022/08/24 01:44:33;;;;;;;12.25;9.55;;;;;;;23.84;63.20;94787.94;5080265;28;20079;-54
2022/08/24 01:46:58;;;;;;;12.90;9.77;;;;;;;23.85;63.09;94797.56;5088276;28;20051;-53
2022/08/24 01:49:27;;;;;;;11.45;9.90;;;;;;;23.88;62.81;94789.09;5087331;28;20040;-54
2022/08/24 01:51:52;;;;;;;14.57;10.52;;;;;;;23.82;63.06;94789.69;5088968;28;20024;-54
2022/08/24 01:54:18;;;;;;;14.55;9.77;;;;;;;23.82;62.85;94778.78;5087817;28;20028;-53
2022/08/24 01:56:44;;;;;;;16.27;10.80;;;;;;;23.87;62.69;94779.44;5093240;28;20509;-54
2022/08/24 01:59:11;;;;;;;12.88;9.25;;;;;;;23.80;62.65;94787.50;5080737;28;20040;-54
2022/08/24 02:01:39;;;;;;;12.85;10.13;;;;;;;23.75;63.16;94790.28;5083655;28;20028;-54
2022/08/24 02:04:05;;;;;;;13.80;10.27;;;;;;;23.75;63.16;94787.56;5078605;28;20043;-53
2022/08/24 02:06:32;;;;;;;13.63;10.27;;;;;;;23.70;63.09;94785.66;5089650;28;20043;-53
2022/08/24 02:08:58;;;;;;;13.00;10.25;;;;;;;23.79;62.85;94799.63;5084384;28;20497;-54
2022/08/24 02:11:23;;;;;;;14.18;10.65;;;;;;;23.86;62.19;94799.78;5087881;28;20126;-53
2022/08/24 02:13:49;;;;;;;12.88;9.75;;;;;;;23.81;62.56;94810.03;5086701;28;20558;-54
2022/08/24 02:16:15;;;;;;;14.65;9.80;;;;;;;23.84;62.42;94814.44;5092683;28;20551;-53
2022/08/24 02:18:40;;;;;;;15.40;10.38;;;;;;;23.70;62.09;94788.38;5084742;28;20027;-54
2022/08/24 02:21:10;;;;;;;13.23;9.73;;;;;;;23.83;62.27;94818.44;5080116;28;20032;-53
2022/08/24 02:23:36;;;;;;;13.93;10.63;;;;;;;23.76;62.63;94813.56;5069567;28;20048;-54
2022/08/24 02:26:03;;;;;;;12.82;10.50;;;;;;;23.81;62.51;94821.69;5084200;28;20112;-54
2022/08/24 02:28:28;;;;;;;13.05;10.48;;;;;;;23.82;61.91;94811.50;5081208;28;20158;-53
2022/08/24 02:30:54;;;;;;;14.10;10.02;;;;;;;23.80;62.58;94824.94;5094258;28;20533;-54
2022/08/24 02:33:21;;;;;;;14.93;10.60;;;;;;;23.83;62.46;94823.91;5096078;28;20410;-54
2022/08/24 02:35:47;;;;;;;15.07;11.23;;;;;;;23.82;62.29;94816.97;5089918;28;20475;-53
2022/08/24 02:38:12;;;;;;;13.00;10.75;;;;;;;23.75;62.60;94809.38;5089911;28;20036;-53
2022/08/24 02:40:38;;;;;;;15.95;11.25;;;;;;;23.75;62.51;94825.72;5090146;28;20040;-54
2022/08/24 02:43:04;;;;;;;16.15;11.40;;;;;;;23.81;62.39;94826.38;5089762;28;20039;-53
2022/08/24 02:45:30;;;;;;;15.02;10.93;;;;;;;23.84;62.21;94825.34;5093412;28;20028;-53
2022/08/24 02:47:56;;;;;;;15.88;10.55;;;;;;;23.79;62.83;94823.44;5088993;28;20399;-53
2022/08/24 02:50:21;;;;;;;13.77;10.40;;;;;;;23.77;62.78;94825.97;5087532;28;20965;-54
2022/08/24 02:52:47;;;;;;;15.32;10.70;;;;;;;23.79;62.59;94828.91;5086944;28;20044;-53
2022/08/24 02:55:15;;;;;;;14.63;10.50;;;;;;;23.75;62.79;94828.44;5089641;28;20506;-55
2022/08/24 02:57:41;;;;;;;12.35;9.82;;;;;;;23.67;62.49;94805.75;5079540;28;20035;-54
2022/08/24 03:00:09;;;;;;;11.48;9.40;;;;;;;23.57;62.34;94801.88;5086212;28;20044;-54
2022/08/24 03:02:35;;;;;;;14.68;10.25;;;;;;;23.81;62.12;94837.28;5092286;28;20084;-54
2022/08/24 03:05:00;;;;;;;11.57;9.30;;;;;;;23.74;62.54;94827.00;5082452;28;20047;-52
2022/08/24 03:07:27;;;;;;;12.43;10.02;;;;;;;23.63;62.40;94810.72;5096675;28;20505;-52
2022/08/24 03:09:52;;;;;;;11.40;9.68;;;;;;;23.79;62.34;94834.34;5082503;28;20521;-53
2022/08/24 03:12:18;;;;;;;13.15;9.38;;;;;;;23.71;62.23;94828.03;5082064;28;20096;-53
2022/08/24 03:14:43;;;;;;;12.35;9.23;;;;;;;23.69;62.79;94822.34;5089875;28;20421;-53
2022/08/24 03:17:09;;;;;;;11.90;9.15;;;;;;;23.73;62.61;94825.50;5086503;28;20127;-54
2022/08/24 03:19:34;;;;;;;14.23;9.75;;;;;;;23.71;62.49;94833.47;5085112;28;20032;-53
2022/08/24 03:22:00;;;;;;;11.98;9.05;;;;;;;23.69;62.76;94830.50;5077563;28;20027;-54
2022/08/24 03:24:25;;;;;;;11.55;8.93;;;;;;;23.71;62.65;94833.47;5087950;28;20015;-53
2022/08/24 03:26:51;;;;;;;11.57;8.75;;;;;;;23.55;62.39;94805.13;5081385;28;20067;-54
2022/08/24 03:29:16;;;;;;;11.68;8.38;;;;;;;23.70;62.58;94832.72;5088419;28;20075;-53
2022/08/24 03:31:42;;;;;;;14.93;9.50;;;;;;;23.65;62.41;94821.91;5076761;28;20036;-53
2022/08/24 03:34:08;;;;;;;11.48;8.70;;;;;;;23.67;62.72;94833.03;5085205;28;20023;-53
2022/08/24 03:36:33;;;;;;;12.07;8.73;;;;;;;23.59;62.46;94832.13;5082555;28;20028;-53
2022/08/24 03:38:58;;;;;;;12.75;9.23;;;;;;;23.64;62.56;94844.97;5079604;28;20037;-54
2022/08/24 03:41:24;;;;;;;11.98;9.23;;;;;;;23.68;62.53;94835.25;5086677;28;20563;-54
2022/08/24 03:43:50;;;;;;;11.55;8.48;;;;;;;23.54;62.29;94802.91;5092219;28;20028;-53
2022/08/24 03:46:20;;;;;;;12.20;9.48;;;;;;;23.68;62.63;94839.97;5082638;28;20043;-54
2022/08/24 03:48:47;;;;;;;13.77;9.40;;;;;;;23.63;62.57;94844.22;5092098;28;20058;-52
2022/08/24 03:51:14;;;;;;;12.82;9.25;;;;;;;23.64;62.86;94850.41;5085080;28;20036;-53
2022/08/24 03:53:40;;;;;;;12.27;9.10;;;;;;;23.67;62.77;94849.38;5092835;28;20043;-54
2022/08/24 03:56:06;;;;;;;12.23;9.65;;;;;;;23.66;62.96;94842.44;5088156;28;20064;-53
2022/08/24 03:58:33;;;;;;;13.32;9.35;;;;;;;23.70;62.68;94851.09;5084936;28;20496;-54
2022/08/24 04:00:59;;;;;;;12.02;9.38;;;;;;;23.58;63.08;94842.25;5079304;28;20364;-52
2022/08/24 04:03:24;;;;;;;13.05;9.77;;;;;;;23.63;62.91;94843.44;5060903;28;20400;-51
2022/08/24 04:05:50;;;;;;;11.00;8.45;;;;;;;23.72;62.45;94840.38;5087639;28;20040;-53
2022/08/24 04:08:16;;;;;;;12.20;9.48;;;;;;;23.85;62.15;94848.66;5086530;28;20089;-53
2022/08/24 04:10:44;;;;;;;10.00;8.57;;;;;;;23.83;62.50;94851.19;5085869;28;20040;-53
2022/08/24 04:13:10;;;;;;;15.60;9.38;;;;;;;23.72;62.60;94834.94;5087993;28;20396;-51
2022/08/24 04:15:39;;;;;;;13.98;9.05;;;;;;;23.71;62.81;94847.13;5078097;28;20040;-52
2022/08/24 04:18:04;;;;;;;12.05;8.82;;;;;;;23.73;62.35;94852.78;5086093;28;20054;-52
2022/08/24 04:20:30;;;;;;;12.93;8.48;;;;;;;23.22;62.80;94777.56;5076742;28;20599;-52
2022/08/24 04:22:55;;;;;;;12.80;9.05;;;;;;;23.77;62.63;94853.22;5087586;28;20398;-52
2022/08/24 04:25:21;;;;;;;10.00;8.40;;;;;;;23.62;62.92;94858.34;5080241;28;20085;-52
2022/08/24 04:27:46;;;;;;;11.32;8.57;;;;;;;23.68;62.74;94851.59;5089427;28;20019;-52
2022/08/24 04:30:13;;;;;;;14.10;8.20;;;;;;;23.69;62.97;94855.06;5075138;28;20052;-52
2022/08/24 04:32:38;;;;;;;10.00;7.60;;;;;;;23.78;62.69;94860.91;5085038;28;20032;-55
2022/08/24 04:35:04;;;;;;;13.40;8.02;;;;;;;23.74;63.00;94848.81;5081728;28;20395;-52
2022/08/24 04:37:30;;;;;;;9.98;7.53;;;;;;;23.72;62.60;94846.59;5077769;28;20105;-54
2022/08/24 04:39:55;;;;;;;10.48;7.60;;;;;;;23.57;63.08;94837.31;5082777;28;20509;-56
2022/08/24 04:42:21;;;;;;;13.13;7.28;;;;;;;23.78;63.22;94855.44;5083448;28;20115;-54
2022/08/24 04:44:46;;;;;;;11.00;6.13;;;;;;;23.76;62.98;94857.22;5081994;28;20024;-54
2022/08/24 04:47:12;;;;;;;9.10;6.78;;;;;;;23.72;63.40;94854.03;5081189;28;20062;-53
2022/08/24 04:49:37;;;;;;;8.60;6.15;;;;;;;23.80;63.02;94857.66;5079183;28;20089;-55
2022/08/24 04:52:03;;;;;;;9.70;6.57;;;;;;;23.69;63.26;94855.81;5083342;28;20031;-55
2022/08/24 04:54:31;;;;;;;9.38;5.95;;;;;;;23.80;63.22;94860.38;5082215;28;20132;-54
2022/08/24 04:56:56;;;;;;;8.10;6.00;;;;;;;23.82;63.12;94860.59;5081040;28;20032;-52
2022/08/24 04:59:22;;;;;;;7.25;5.95;;;;;;;23.81;63.13;94864.56;5075485;28;20713;-53
2022/08/24 05:01:47;;;;;;;7.50;6.00;;;;;;;23.96;63.19;94857.41;5072009;28;20111;-54
2022/08/24 05:04:13;;;;;;;8.00;5.47;;;;;;;23.86;63.51;94857.06;5078504;28;20374;-53
2022/08/24 05:06:39;;;;;;;7.18;5.90;;;;;;;23.91;63.30;94848.06;5078961;28;20042;-53
2022/08/24 05:09:05;;;;;;;8.52;5.78;;;;;;;24.02;63.35;94864.28;5081843;28;20029;-53
2022/08/24 05:11:30;;;;;;;7.72;5.70;;;;;;;24.06;62.70;94848.34;5079645;28;20149;-54
2022/08/24 05:13:56;;;;;;;7.80;5.75;;;;;;;24.11;62.46;94854.97;5078271;28;20052;-54
2022/08/24 05:16:22;;;;;;;7.22;5.65;;;;;;;24.19;62.35;94856.59;5076670;28;20510;-56
2022/08/24 05:18:47;;;;;;;7.78;5.50;;;;;;;24.11;62.60;94833.91;5079378;28;20020;-54
2022/08/24 05:21:15;;;;;;;6.55;5.53;;;;;;;24.38;62.56;94846.44;5077170;28;20590;-53
2022/08/24 05:23:41;;;;;;;7.28;5.57;;;;;;;24.45;62.59;94845.81;5079605;28;20545;-54
2022/08/24 05:26:09;;;;;;;12.45;8.70;;;;;;;24.54;62.03;94848.16;5069724;28;20060;-54
2022/08/24 05:28:35;;;;;;;13.55;10.55;;;;;;;24.53;62.31;94852.16;5069480;28;20190;-53
2022/08/24 05:31:12;;;;;;;10.45;7.40;;;;;;;24.56;63.93;94840.19;5081378;28;20498;-55
2022/08/24 05:33:37;;;;;;;10.43;6.72;;;;;;;24.63;62.84;94845.75;5072717;28;20511;-53
2022/08/24 05:36:05;;;;;;;12.52;8.93;;;;;;;24.68;61.81;94841.44;5075986;28;20036;-53
2022/08/24 05:38:31;;;;;;;10.32;7.93;;;;;;;24.83;61.16;94842.44;5087067;28;20046;-56
2022/08/24 05:41:02;;;;;;;9.50;6.43;;;;;;;24.88;60.85;94845.06;5055094;28;20779;-53
2022/08/24 05:43:28;;;;;;;8.55;6.63;;;;;;;24.89;60.45;94824.69;5067822;28;20056;-55
2022/08/24 05:45:54;;;;;;;7.40;5.10;;;;;;;25.00;60.91;94846.38;5068634;28;20111;-54
2022/08/24 05:48:19;;;;;;;8.90;5.40;;;;;;;25.06;59.63;94838.09;5074057;28;20498;-53
2022/08/24 05:50:53;;;;;;;6.10;5.22;;;;;;;25.18;59.50;94842.81;5076502;28;20569;-55
2022/08/24 05:53:19;;;;;;;8.60;5.13;;;;;;;25.22;59.55;94840.53;5081055;28;20063;-55
2022/08/24 05:55:44;;;;;;;6.95;4.93;;;;;;;25.31;59.01;94829.16;5075352;28;20105;-53
2022/08/24 05:58:10;;;;;;;7.63;4.70;;;;;;;25.30;58.98;94841.34;5079427;28;20532;-56
2022/08/24 06:00:36;;;;;;;6.22;4.93;;;;;;;25.26;59.13;94823.78;5078665;28;20036;-53
2022/08/24 06:03:01;;;;;;;7.78;5.03;;;;;;;25.42;58.79;94837.16;5080891;28;20559;-53
2022/08/24 06:05:27;;;;;;;6.13;4.88;;;;;;;25.38;58.56;94814.84;5076843;28;20036;-53
2022/08/24 06:07:52;;;;;;;6.28;4.70;;;;;;;25.47;59.08;94839.03;5083425;28;20040;-54
2022/08/24 06:10:18;;;;;;;6.25;4.40;;;;;;;25.60;59.02;94847.22;5081155;28;20116;-54
2022/08/24 06:12:44;;;;;;;6.40;5.05;;;;;;;25.65;58.70;94835.47;5077703;28;20058;-53
2022/08/24 06:15:10;;;;;;;7.22;4.70;;;;;;;25.73;58.01;94833.56;5085145;28;20541;-54
2022/08/24 06:17:35;;;;;;;6.78;4.57;;;;;;;25.58;58.32;94857.97;5086566;28;20480;-53
2022/08/24 06:20:01;;;;;;;8.30;4.60;;;;;;;25.81;57.06;94841.34;5087723;28;20032;-54
2022/08/24 06:22:27;;;;;;;7.63;4.60;;;;;;;25.58;57.26;94811.47;5071658;22;20411;-78
2022/08/24 06:27:36;;;;;;;6.80;4.60;;;;;;;25.62;56.42;94809.13;4992020;28;20526;-76
2022/08/24 06:30:08;;;;;;;7.38;4.60;;;;;;;25.92;56.03;94835.63;5008383;28;20042;-77
2022/08/24 06:32:34;;;;;;;6.85;4.85;;;;;;;25.96;55.70;94840.78;5023115;23;20114;-61
2022/08/24 06:35:00;;;;;;;7.40;4.50;;;;;;;25.34;56.07;94748.84;5031503;28;20037;-62
2022/08/24 06:37:26;;;;;;;8.82;4.80;;;;;;;25.77;56.22;94823.78;5029279;28;20044;-63
2022/08/24 06:39:55;;;;;;;7.43;5.13;;;;;;;26.01;55.90;94840.66;5039687;28;20017;-64
2022/08/24 06:42:23;;;;;;;7.88;5.30;;;;;;;26.05;56.16;94838.34;5058394;28;20029;-66
2022/08/24 06:44:49;;;;;;;6.35;4.85;;;;;;;25.77;56.61;94806.63;5043605;28;20029;-63
2022/08/24 06:47:15;;;;;;;7.90;5.10;;;;;;;26.02;56.87;94844.88;5063209;28;20062;-62
2022/08/24 06:49:40;;;;;;;9.25;5.65;;;;;;;26.12;56.28;94848.63;5060330;28;20514;-64
2022/08/24 06:52:06;;;;;;;9.27;5.15;;;;;;;25.71;56.30;94792.31;5051397;28;20093;-61
2022/08/24 06:54:32;;;;;;;6.53;5.20;;;;;;;26.14;56.63;94839.88;5053208;28;20028;-65
2022/08/24 06:56:57;;;;;;;8.95;5.53;;;;;;;26.23;56.71;94848.38;5051691;28;20082;-63
2022/08/24 06:59:27;;;;;;;7.93;5.03;;;;;;;25.65;56.47;94772.56;5047909;28;20037;-61
2022/08/24 07:01:54;;;;;;;9.40;6.10;;;;;;;25.97;57.11;94821.09;5062308;28;20529;-61
2022/08/24 07:04:20;;;;;;;7.00;5.30;;;;;;;26.38;57.10;94854.03;5045577;28;20032;-59
2022/08/24 07:06:46;;;;;;;10.18;5.25;;;;;;;26.20;57.52;94854.91;5039149;28;20017;-63
2022/08/24 07:09:11;;;;;;;7.85;4.90;;;;;;;25.80;56.36;94779.69;5054593;28;20052;-62
2022/08/24 07:11:37;;;;;;;7.43;4.63;;;;;;;26.28;56.67;94861.25;5068667;28;20490;-60
2022/08/24 07:14:03;;;;;;;8.75;5.15;;;;;;;26.25;56.05;94843.13;5062632;28;20055;-66
2022/08/24 07:16:28;;;;;;;7.05;4.90;;;;;;;26.36;55.12;94856.56;5053221;28;20057;-65
2022/08/24 07:18:54;;;;;;;6.13;4.60;;;;;;;26.02;54.63;94806.56;5070298;28;20074;-62
2022/08/24 07:21:19;;;;;;;5.65;4.30;;;;;;;26.15;54.75;94825.66;5067352;28;20082;-62
2022/08/24 07:23:48;;;;;;;5.47;4.68;;;;;;;26.48;54.59;94857.78;5058395;28;20040;-63
2022/08/24 07:26:21;;;;;;;5.53;4.30;;;;;;;26.59;53.80;94874.72;5068777;28;20048;-62
2022/08/24 07:28:46;;;;;;;5.80;4.10;;;;;;;26.43;53.60;94861.41;5076530;28;20036;-64
2022/08/24 07:31:12;;;;;;;5.95;4.00;;;;;;;26.42;53.55;94851.69;5071331;28;20044;-64
2022/08/24 07:33:38;;;;;;;5.82;3.92;;;;;;;26.67;52.82;94877.53;5073923;28;20071;-60
2022/08/24 07:36:04;;;;;;;6.85;4.00;;;;;;;26.82;52.72;94864.69;5068875;28;20094;-64
2022/08/24 07:38:30;;;;;;;5.43;3.90;;;;;;;26.68;52.25;94865.28;5054012;28;20024;-67
2022/08/24 07:40:56;;;;;;;6.95;4.00;;;;;;;26.40;52.46;94791.25;5051171;28;20025;-64
2022/08/24 07:43:21;;;;;;;7.15;3.97;;;;;;;26.22;52.65;94772.25;5066452;28;20113;-68
2022/08/24 07:45:48;;;;;;;6.18;4.05;;;;;;;26.94;52.29;94883.09;5076330;28;20022;-60
2022/08/24 07:48:13;;;;;;;5.72;3.63;;;;;;;26.89;52.32;94859.28;5077479;28;20210;-63
2022/08/24 07:50:39;;;;;;;6.28;3.90;;;;;;;26.79;52.34;94847.28;5067230;28;20135;-67
2022/08/24 07:53:04;;;;;;;5.15;3.83;;;;;;;26.58;52.44;94806.75;5078233;28;20101;-62
2022/08/24 07:55:30;;;;;;;7.00;4.20;;;;;;;27.15;52.16;94866.63;5077111;28;20041;-60
2022/08/24 07:57:55;;;;;;;5.90;3.50;;;;;;;27.04;51.57;94840.22;5063752;28;20040;-59
2022/08/24 08:00:21;;;;;;;5.35;3.72;;;;;;;27.21;52.00;94862.44;5060886;28;20491;-61
2022/08/24 08:02:47;;;;;;;5.50;3.90;;;;;;;27.22;51.76;94852.97;5075099;28;20040;-64
2022/08/24 08:05:17;;;;;;;5.45;4.00;;;;;;;26.75;52.24;94776.94;5074675;28;20037;-65
2022/08/24 08:07:43;;;;;;;5.65;4.15;;;;;;;26.98;52.07;94806.75;5076008;28;20042;-67
2022/08/24 08:10:09;;;;;;;6.43;4.05;;;;;;;26.63;51.47;94754.56;5077817;28;20111;-65
2022/08/24 08:12:35;;;;;;;5.57;4.22;;;;;;;27.25;52.42;94857.38;5066211;28;20048;-65
2022/08/24 08:15:01;;;;;;;5.72;4.00;;;;;;;27.28;52.04;94850.81;5077935;28;20036;-67
2022/08/24 08:17:27;;;;;;;7.47;3.90;;;;;;;26.95;51.53;94780.41;5061684;28;20028;-66
2022/08/24 08:19:52;;;;;;;5.63;3.58;;;;;;;26.88;51.61;94759.13;5077219;28;20527;-64
2022/08/24 08:25:01;;;;;;;6.07;4.00;;;;;;;27.10;50.92;94775.03;5065045;28;20031;-67
2022/08/24 08:27:27;;;;;;;5.53;4.03;;;;;;;27.43;50.59;94834.44;5069066;28;20449;-65
2022/08/24 08:29:52;;;;;;;6.35;3.65;;;;;;;27.27;50.34;94805.47;5071979;28;20032;-65
2022/08/24 08:32:18;;;;;;;6.20;4.43;;;;;;;27.29;50.56;94802.91;5070454;28;20066;-68
2022/08/24 08:34:44;;;;;;;6.57;4.18;;;;;;;27.37;50.66;94820.88;5084457;28;20036;-67
2022/08/24 08:37:10;;;;;;;6.10;4.30;;;;;;;27.02;50.66;94762.53;5080343;28;20012;-66
2022/08/24 08:39:36;;;;;;;6.13;4.40;;;;;;;26.91;49.91;94730.66;5083574;28;20482;-65
2022/08/24 08:42:17;;;;;;;7.30;3.75;;;;;;;27.56;50.49;94837.09;5078015;28;20467;-64
2022/08/24 08:44:54;;;;;;;5.40;4.50;;;;;;;27.72;50.31;94839.38;5067764;28;20045;-63
2022/08/24 08:47:29;;;;;;;6.15;3.83;;;;;;;27.78;50.46;94843.41;5072929;28;20105;-64
2022/08/24 08:50:10;;;;;;;4.70;3.45;;;;;;;27.74;50.27;94843.06;5055138;28;20066;-61
2022/08/24 08:53:02;;;;;;;5.28;3.80;;;;;;;27.74;50.52;94832.06;5076493;28;20729;-65
2022/08/24 08:55:46;;;;;;;4.80;3.55;;;;;;;27.90;50.05;94838.34;5064623;28;20064;-63
2022/08/24 08:58:43;;;;;;;6.00;3.60;;;;;;;27.85;50.70;94836.50;5078931;28;20028;-64
2022/08/24 09:01:14;;;;;;;5.03;3.63;;;;;;;28.00;49.82;94847.56;5066071;28;20063;-59
2022/08/24 09:04:04;;;;;;;4.88;3.50;;;;;;;27.90;49.09;94850.06;5041935;28;20025;-65
2022/08/24 09:06:59;;;;;;;4.00;3.03;;;;;;;27.99;48.26;94852.28;5062452;28;20431;-61
2022/08/24 09:09:47;;;;;;;3.92;3.05;;;;;;;27.93;48.18;94848.97;4998598;28;20052;-61
2022/08/24 09:12:38;;;;;;;5.40;3.03;;;;;;;27.73;48.74;94803.16;5069533;28;20072;-62
2022/08/24 09:15:12;;;;;;;4.90;3.15;;;;;;;28.17;48.53;94843.03;5067100;28;20044;-61
2022/08/24 09:17:45;;;;;;;4.63;3.10;;;;;;;27.56;48.56;94776.72;5075695;28;20071;-63
2022/08/24 09:20:20;;;;;;;4.82;3.10;;;;;;;28.11;48.22;94842.47;5073253;28;20128;-64
2022/08/24 09:22:47;;;;;;;7.97;3.60;;;;;;;27.74;48.48;94779.94;5082275;28;20143;-63
2022/08/24 09:25:32;;;;;;;7.03;3.20;;;;;;;28.25;48.61;94836.31;5078407;28;20036;-65
2022/08/24 09:28:12;;;;;;;4.82;2.80;;;;;;;28.24;48.46;94834.09;5079051;28;20037;-63
2022/08/24 09:30:56;;;;;;;6.85;3.60;;;;;;;28.31;47.74;94833.38;5082884;28;20102;-66
2022/08/24 09:33:43;;;;;;;6.70;3.10;;;;;;;27.99;47.75;94786.41;5068044;28;20044;-65
2022/08/24 09:36:19;;;;;;;6.50;3.20;;;;;;;28.34;47.42;94826.78;5068524;28;20045;-65
2022/08/24 09:38:59;;;;;;;4.63;3.10;;;;;;;28.19;47.15;94810.28;5055188;28;20048;-66
2022/08/24 09:41:42;;;;;;;5.57;3.53;;;;;;;28.29;47.34;94824.94;5041717;28;20055;-64
2022/08/24 09:44:26;;;;;;;6.60;3.35;;;;;;;28.27;47.17;94827.53;5059362;28;20047;-69
2022/08/24 09:47:16;;;;;;;6.35;3.10;;;;;;;28.29;46.36;94813.97;5068935;28;20066;-67
2022/08/24 09:50:06;;;;;;;5.30;3.55;;;;;;;28.36;46.29;94813.25;5070934;28;20047;-68
2022/08/24 09:53:00;;;;;;;5.57;3.40;;;;;;;28.39;46.38;94807.38;5068136;28;20032;-65
2022/08/24 09:55:37;;;;;;;4.70;3.15;;;;;;;28.67;46.05;94804.53;5064844;28;20534;-64
2022/08/24 09:58:34;;;;;;;5.72;3.78;;;;;;;28.72;46.16;94800.13;5064590;28;20028;-68
2022/08/24 10:01:07;;;;;;;6.10;3.75;;;;;;;28.66;46.22;94791.31;5058554;28;20032;-67
2022/08/24 10:04:06;;;;;;;5.07;3.08;;;;;;;28.64;46.18;94782.84;5064468;28;20025;-67
2022/08/24 10:06:39;;;;;;;6.10;3.80;;;;;;;28.35;46.21;94734.88;5076297;28;20067;-67
2022/08/24 10:09:44;;;;;;;4.93;3.10;;;;;;;28.82;45.85;94772.25;5058144;28;20028;-67
2022/08/24 10:12:15;;;;;;;4.15;3.33;;;;;;;28.73;45.89;94778.31;5064014;28;20710;-65
2022/08/24 10:14:56;;;;;;;4.50;3.55;;;;;;;28.37;44.93;94693.84;5069853;28;20102;-67
2022/08/24 10:17:45;;;;;;;5.07;3.53;;;;;;;28.78;44.83;94769.16;5050426;28;20297;-66
2022/08/24 10:20:22;;;;;;;5.03;3.10;;;;;;;28.80;45.36;94768.59;5066607;28;20024;-66
2022/08/24 10:23:00;;;;;;;5.30;3.38;;;;;;;28.98;45.52;94762.69;5065911;28;20040;-62
2022/08/24 10:25:46;;;;;;;5.32;3.55;;;;;;;28.97;44.71;94758.50;5070222;28;20511;-61
2022/08/24 10:28:15;;;;;;;6.10;3.55;;;;;;;28.88;45.12;94764.56;5071483;28;20032;-60
2022/08/24 10:30:54;;;;;;;6.88;3.10;;;;;;;28.53;44.50;94689.81;5070117;28;20086;-61
2022/08/24 10:33:31;;;;;;;4.78;3.40;;;;;;;28.77;45.57;94759.44;5044753;28;20069;-64
2022/08/24 10:36:11;;;;;;;4.38;3.42;;;;;;;28.97;44.49;94772.25;5046076;28;21280;-64
2022/08/24 10:41:58;;;;;;;5.68;3.15;;;;;;;28.97;43.73;94766.75;5064803;28;20043;-64
2022/08/24 10:44:48;;;;;;;5.57;3.08;;;;;;;28.85;44.56;94762.91;5056179;28;20059;-65
2022/08/24 10:47:27;;;;;;;5.13;3.28;;;;;;;28.49;45.39;94722.41;5062219;28;20792;-67
2022/08/24 10:50:11;;;;;;;5.18;3.60;;;;;;;28.68;45.00;94764.03;5069010;28;20040;-67
2022/08/24 10:53:04;;;;;;;5.07;3.65;;;;;;;28.57;45.72;94767.13;5061788;28;20040;-67
2022/08/24 10:55:31;;;;;;;4.72;3.40;;;;;;;28.47;45.67;94774.44;5069961;28;20262;-61
2022/08/24 10:58:19;;;;;;;6.50;3.58;;;;;;;28.03;45.46;94709.91;5070696;28;20560;-64
2022/08/24 11:00:45;;;;;;;6.53;3.40;;;;;;;28.30;45.55;94744.75;5063203;28;20036;-68
2022/08/24 11:03:13;;;;;;;7.93;3.58;;;;;;;28.16;46.33;94729.00;5033587;28;20051;-63
2022/08/24 11:05:44;;;;;;;4.72;3.60;;;;;;;28.30;46.24;94755.00;5061972;28;21020;-62
2022/08/24 11:08:16;;;;;;;6.47;3.70;;;;;;;28.21;46.90;94752.81;5049993;28;20047;-63
2022/08/24 11:10:42;;;;;;;5.28;3.40;;;;;;;28.20;46.65;94762.31;5070018;28;20037;-63
2022/08/24 11:13:17;;;;;;;4.03;3.58;;;;;;;28.12;47.57;94753.34;5067198;28;20085;-60
2022/08/24 11:15:50;;;;;;;5.30;3.65;;;;;;;27.89;47.58;94727.81;5068305;28;20043;-62
2022/08/24 11:18:15;;;;;;;6.18;3.85;;;;;;;28.00;47.83;94749.44;5054115;28;20802;-63
2022/08/24 11:20:45;;;;;;;4.78;3.45;;;;;;;27.99;47.85;94742.47;5069809;28;20067;-61
2022/08/24 11:23:24;;;;;;;5.70;3.80;;;;;;;27.14;48.16;94632.81;5067381;28;20036;-65
2022/08/24 11:25:56;;;;;;;5.90;3.90;;;;;;;27.85;48.47;94743.91;5067151;28;20061;-59
2022/08/24 11:28:44;;;;;;;5.38;4.15;;;;;;;27.76;48.45;94735.47;5062123;28;20048;-60
2022/08/24 11:31:20;;;;;;;6.07;3.75;;;;;;;27.26;48.92;94661.38;5051867;28;20040;-61
2022/08/24 11:33:51;;;;;;;6.47;4.03;;;;;;;27.37;48.77;94694.00;5044234;28;20063;-61
2022/08/24 11:36:22;;;;;;;5.20;3.80;;;;;;;27.18;49.38;94671.59;5064332;28;20032;-59
2022/08/24 11:38:48;;;;;;;5.65;4.07;;;;;;;27.73;49.20;94748.28;5082441;28;20032;-60
2022/08/24 11:41:32;;;;;;;4.88;3.70;;;;;;;27.54;49.59;94718.94;5080992;28;20842;-63
2022/08/24 11:44:02;;;;;;;5.05;3.92;;;;;;;27.26;48.74;94662.13;5059524;28;20032;-64
2022/08/24 11:46:34;;;;;;;5.05;4.10;;;;;;;27.68;49.44;94720.25;5081409;28;20101;-66
2022/08/24 11:49:11;;;;;;;6.28;4.22;;;;;;;27.60;49.36;94733.22;5062063;28;20028;-66
2022/08/24 11:51:50;;;;;;;5.15;3.70;;;;;;;27.60;49.77;94733.22;5082183;28;20529;-61